sensor_id;sensor_type;location;lat;lon;timestamp;temperature;humidity
38131;DHT22;23947;51.894;4.622;2023-04-10T00:01:37;9.90;1.40
38131;DHT22;23947;51.894;4.622;2023-04-10T00:04:03;9.90;1.40
38131;DHT22;23947;51.894;4.622;2023-04-10T00:06:31;9.90;1.40
38131;DHT22;23947;51.894;4.622;2023-04-10T00:09:00;9.90;1.40
38131;DHT22;23947;51.894;4.622;2023-04-10T00:11:26;9.90;1.40
38131;DHT22;23947;51.894;4.622;2023-04-10T00:13:52;9.80;1.40
38131;DHT22;23947;51.894;4.622;2023-04-10T00:16:18;9.80;1.40
38131;DHT22;23947;51.894;4.622;2023-04-10T00:18:43;9.80;1.40
38131;DHT22;23947;51.894;4.622;2023-04-10T00:21:09;9.80;1.40
38131;DHT22;23947;51.894;4.622;2023-04-10T00:23:35;9.70;1.40
38131;DHT22;23947;51.894;4.622;2023-04-10T00:26:01;9.70;1.40
38131;DHT22;23947;51.894;4.622;2023-04-10T00:28:27;9.60;1.40
38131;DHT22;23947;51.894;4.622;2023-04-10T00:30:52;9.70;1.40
38131;DHT22;23947;51.894;4.622;2023-04-10T00:33:18;9.70;1.40
38131;DHT22;23947;51.894;4.622;2023-04-10T00:35:44;9.80;1.40
38131;DHT22;23947;51.894;4.622;2023-04-10T00:38:09;9.80;1.40
38131;DHT22;23947;51.894;4.622;2023-04-10T00:40:35;9.90;1.40
38131;DHT22;23947;51.894;4.622;2023-04-10T00:43:01;9.90;1.40
38131;DHT22;23947;51.894;4.622;2023-04-10T00:45:26;9.90;1.40
38131;DHT22;23947;51.894;4.622;2023-04-10T00:47:53;10.00;1.40
38131;DHT22;23947;51.894;4.622;2023-04-10T00:50:19;10.00;1.40
38131;DHT22;23947;51.894;4.622;2023-04-10T00:52:45;10.00;1.40
38131;DHT22;23947;51.894;4.622;2023-04-10T00:55:11;10.00;1.40
38131;DHT22;23947;51.894;4.622;2023-04-10T00:57:37;10.00;1.40
38131;DHT22;23947;51.894;4.622;2023-04-10T01:00:03;10.00;1.40
38131;DHT22;23947;51.894;4.622;2023-04-10T01:02:29;10.00;1.40
38131;DHT22;23947;51.894;4.622;2023-04-10T01:04:56;10.00;1.40
38131;DHT22;23947;51.894;4.622;2023-04-10T01:07:33;10.00;1.40
38131;DHT22;23947;51.894;4.622;2023-04-10T01:12:58;9.90;1.40
38131;DHT22;23947;51.894;4.622;2023-04-10T01:15:57;9.90;1.40
38131;DHT22;23947;51.894;4.622;2023-04-10T01:21:04;9.80;1.40
38131;DHT22;23947;51.894;4.622;2023-04-10T01:26:12;9.70;1.40
38131;DHT22;23947;51.894;4.622;2023-04-10T01:31:45;9.70;1.40
38131;DHT22;23947;51.894;4.622;2023-04-10T01:34:14;9.70;1.40
38131;DHT22;23947;51.894;4.622;2023-04-10T01:36:48;9.70;1.40
38131;DHT22;23947;51.894;4.622;2023-04-10T01:39:18;9.70;1.40
38131;DHT22;23947;51.894;4.622;2023-04-10T01:41:45;9.70;1.40
38131;DHT22;23947;51.894;4.622;2023-04-10T01:44:13;9.70;1.40
38131;DHT22;23947;51.894;4.622;2023-04-10T01:46:39;9.70;1.40
38131;DHT22;23947;51.894;4.622;2023-04-10T01:49:07;9.60;1.40
38131;DHT22;23947;51.894;4.622;2023-04-10T01:51:34;9.70;1.40
38131;DHT22;23947;51.894;4.622;2023-04-10T01:54:01;9.60;1.40
38131;DHT22;23947;51.894;4.622;2023-04-10T01:56:27;9.60;1.40
38131;DHT22;23947;51.894;4.622;2023-04-10T01:58:53;9.60;1.40
38131;DHT22;23947;51.894;4.622;2023-04-10T02:01:21;9.60;1.40
38131;DHT22;23947;51.894;4.622;2023-04-10T02:03:46;9.60;1.40
38131;DHT22;23947;51.894;4.622;2023-04-10T02:06:36;9.60;1.40
38131;DHT22;23947;51.894;4.622;2023-04-10T02:11:51;9.60;1.40
38131;DHT22;23947;51.894;4.622;2023-04-10T02:14:21;9.60;1.40
38131;DHT22;23947;51.894;4.622;2023-04-10T02:16:49;9.60;1.40
38131;DHT22;23947;51.894;4.622;2023-04-10T02:19:18;9.50;1.40
38131;DHT22;23947;51.894;4.622;2023-04-10T02:21:46;9.50;1.40
38131;DHT22;23947;51.894;4.622;2023-04-10T02:24:12;9.50;1.40
38131;DHT22;23947;51.894;4.622;2023-04-10T02:26:49;9.50;1.40
38131;DHT22;23947;51.894;4.622;2023-04-10T02:29:15;9.50;1.40
38131;DHT22;23947;51.894;4.622;2023-04-10T02:31:41;9.50;1.40
38131;DHT22;23947;51.894;4.622;2023-04-10T02:34:07;9.50;1.40
38131;DHT22;23947;51.894;4.622;2023-04-10T02:36:37;9.50;1.40
38131;DHT22;23947;51.894;4.622;2023-04-10T02:39:03;9.50;1.40
38131;DHT22;23947;51.894;4.622;2023-04-10T02:41:29;9.50;1.40
38131;DHT22;23947;51.894;4.622;2023-04-10T02:43:55;9.50;1.40
38131;DHT22;23947;51.894;4.622;2023-04-10T02:46:21;9.50;1.40
38131;DHT22;23947;51.894;4.622;2023-04-10T02:48:46;9.60;1.40
38131;DHT22;23947;51.894;4.622;2023-04-10T02:51:12;9.60;1.40
38131;DHT22;23947;51.894;4.622;2023-04-10T02:53:38;9.60;1.40
38131;DHT22;23947;51.894;4.622;2023-04-10T02:56:04;9.60;1.40
38131;DHT22;23947;51.894;4.622;2023-04-10T02:58:31;9.70;1.40
38131;DHT22;23947;51.894;4.622;2023-04-10T03:00:57;9.70;1.40
38131;DHT22;23947;51.894;4.622;2023-04-10T03:03:23;9.70;1.40
38131;DHT22;23947;51.894;4.622;2023-04-10T03:05:48;9.70;1.40
38131;DHT22;23947;51.894;4.622;2023-04-10T03:08:15;9.70;1.40
38131;DHT22;23947;51.894;4.622;2023-04-10T03:10:43;9.70;1.40
38131;DHT22;23947;51.894;4.622;2023-04-10T03:13:09;9.70;1.40
38131;DHT22;23947;51.894;4.622;2023-04-10T03:15:35;9.70;1.40
38131;DHT22;23947;51.894;4.622;2023-04-10T03:18:01;9.70;1.40
38131;DHT22;23947;51.894;4.622;2023-04-10T03:20:26;9.70;1.40
38131;DHT22;23947;51.894;4.622;2023-04-10T03:22:52;9.70;1.40
38131;DHT22;23947;51.894;4.622;2023-04-10T03:25:18;9.70;1.40
38131;DHT22;23947;51.894;4.622;2023-04-10T03:27:43;9.60;1.40
38131;DHT22;23947;51.894;4.622;2023-04-10T03:30:10;9.60;1.40
38131;DHT22;23947;51.894;4.622;2023-04-10T03:32:36;9.60;1.40
38131;DHT22;23947;51.894;4.622;2023-04-10T03:35:01;9.60;1.40
38131;DHT22;23947;51.894;4.622;2023-04-10T03:37:27;9.60;1.40
38131;DHT22;23947;51.894;4.622;2023-04-10T03:39:52;9.70;1.40
38131;DHT22;23947;51.894;4.622;2023-04-10T03:42:18;9.70;1.40
38131;DHT22;23947;51.894;4.622;2023-04-10T03:44:44;9.70;1.40
38131;DHT22;23947;51.894;4.622;2023-04-10T03:47:10;9.70;1.40
38131;DHT22;23947;51.894;4.622;2023-04-10T03:49:35;9.80;1.40
38131;DHT22;23947;51.894;4.622;2023-04-10T03:52:01;9.80;1.40
38131;DHT22;23947;51.894;4.622;2023-04-10T03:54:26;9.80;1.40
38131;DHT22;23947;51.894;4.622;2023-04-10T03:56:52;9.80;1.40
38131;DHT22;23947;51.894;4.622;2023-04-10T03:59:18;9.80;1.40
38131;DHT22;23947;51.894;4.622;2023-04-10T04:01:43;9.80;1.40
38131;DHT22;23947;51.894;4.622;2023-04-10T04:04:09;9.90;1.40
38131;DHT22;23947;51.894;4.622;2023-04-10T04:06:34;9.90;1.40
38131;DHT22;23947;51.894;4.622;2023-04-10T04:09:00;9.90;1.40
38131;DHT22;23947;51.894;4.622;2023-04-10T04:11:25;9.80;1.40
38131;DHT22;23947;51.894;4.622;2023-04-10T04:13:52;9.80;1.40
38131;DHT22;23947;51.894;4.622;2023-04-10T04:16:17;9.80;1.40
38131;DHT22;23947;51.894;4.622;2023-04-10T04:18:43;9.80;1.40
38131;DHT22;23947;51.894;4.622;2023-04-10T04:21:09;9.80;1.40
38131;DHT22;23947;51.894;4.622;2023-04-10T04:23:34;9.80;1.40
38131;DHT22;23947;51.894;4.622;2023-04-10T04:26:00;9.80;1.40
38131;DHT22;23947;51.894;4.622;2023-04-10T04:28:26;9.80;1.40
38131;DHT22;23947;51.894;4.622;2023-04-10T04:30:51;9.80;1.40
38131;DHT22;23947;51.894;4.622;2023-04-10T04:33:17;9.80;1.40
38131;DHT22;23947;51.894;4.622;2023-04-10T04:35:42;9.80;1.40
38131;DHT22;23947;51.894;4.622;2023-04-10T04:38:08;9.80;1.40
38131;DHT22;23947;51.894;4.622;2023-04-10T04:40:34;9.80;1.40
38131;DHT22;23947;51.894;4.622;2023-04-10T04:42:59;9.80;1.40
38131;DHT22;23947;51.894;4.622;2023-04-10T04:45:25;9.80;1.40
38131;DHT22;23947;51.894;4.622;2023-04-10T04:47:50;9.80;1.40
38131;DHT22;23947;51.894;4.622;2023-04-10T04:50:16;9.80;1.40
38131;DHT22;23947;51.894;4.622;2023-04-10T04:52:42;9.70;1.40
38131;DHT22;23947;51.894;4.622;2023-04-10T04:55:08;9.70;1.40
38131;DHT22;23947;51.894;4.622;2023-04-10T04:57:34;9.80;1.40
38131;DHT22;23947;51.894;4.622;2023-04-10T05:00:00;9.70;1.40
38131;DHT22;23947;51.894;4.622;2023-04-10T05:02:25;9.80;1.40
38131;DHT22;23947;51.894;4.622;2023-04-10T05:04:51;9.80;1.40
38131;DHT22;23947;51.894;4.622;2023-04-10T05:07:16;9.80;1.40
38131;DHT22;23947;51.894;4.622;2023-04-10T05:09:42;9.80;1.40
38131;DHT22;23947;51.894;4.622;2023-04-10T05:12:08;9.80;1.40
38131;DHT22;23947;51.894;4.622;2023-04-10T05:14:33;9.80;1.40
38131;DHT22;23947;51.894;4.622;2023-04-10T05:16:59;9.70;1.40
38131;DHT22;23947;51.894;4.622;2023-04-10T05:19:24;9.70;1.40
38131;DHT22;23947;51.894;4.622;2023-04-10T05:21:50;9.70;1.40
38131;DHT22;23947;51.894;4.622;2023-04-10T05:24:16;9.70;1.40
38131;DHT22;23947;51.894;4.622;2023-04-10T05:26:41;9.70;1.40
38131;DHT22;23947;51.894;4.622;2023-04-10T05:29:07;9.70;1.40
38131;DHT22;23947;51.894;4.622;2023-04-10T05:31:33;9.70;1.40
38131;DHT22;23947;51.894;4.622;2023-04-10T05:33:58;9.70;1.40
38131;DHT22;23947;51.894;4.622;2023-04-10T05:36:24;9.70;1.40
38131;DHT22;23947;51.894;4.622;2023-04-10T05:38:50;9.70;1.40
38131;DHT22;23947;51.894;4.622;2023-04-10T05:41:15;9.80;1.40
38131;DHT22;23947;51.894;4.622;2023-04-10T05:43:41;9.80;1.40
38131;DHT22;23947;51.894;4.622;2023-04-10T05:46:06;9.80;1.40
38131;DHT22;23947;51.894;4.622;2023-04-10T05:48:32;9.80;1.40
38131;DHT22;23947;51.894;4.622;2023-04-10T05:50:58;9.80;1.40
38131;DHT22;23947;51.894;4.622;2023-04-10T05:53:28;9.80;1.40
38131;DHT22;23947;51.894;4.622;2023-04-10T05:55:57;9.80;1.40
38131;DHT22;23947;51.894;4.622;2023-04-10T05:58:24;9.80;1.40
38131;DHT22;23947;51.894;4.622;2023-04-10T06:00:51;9.80;1.40
38131;DHT22;23947;51.894;4.622;2023-04-10T06:03:17;9.80;1.40
38131;DHT22;23947;51.894;4.622;2023-04-10T06:05:43;9.80;1.40
38131;DHT22;23947;51.894;4.622;2023-04-10T06:08:08;9.70;1.40
38131;DHT22;23947;51.894;4.622;2023-04-10T06:10:34;9.80;1.40
38131;DHT22;23947;51.894;4.622;2023-04-10T06:13:00;9.80;1.40
38131;DHT22;23947;51.894;4.622;2023-04-10T06:15:26;9.80;1.40
38131;DHT22;23947;51.894;4.622;2023-04-10T06:17:51;9.80;1.40
38131;DHT22;23947;51.894;4.622;2023-04-10T06:20:18;9.80;1.40
38131;DHT22;23947;51.894;4.622;2023-04-10T06:22:44;9.80;1.40
38131;DHT22;23947;51.894;4.622;2023-04-10T06:25:10;9.80;1.40
38131;DHT22;23947;51.894;4.622;2023-04-10T06:27:36;9.80;1.40
38131;DHT22;23947;51.894;4.622;2023-04-10T06:31:54;9.80;1.40
38131;DHT22;23947;51.894;4.622;2023-04-10T06:34:20;9.90;1.40
38131;DHT22;23947;51.894;4.622;2023-04-10T06:36:46;9.90;1.40
38131;DHT22;23947;51.894;4.622;2023-04-10T06:39:11;9.90;1.40
38131;DHT22;23947;51.894;4.622;2023-04-10T06:41:37;9.90;1.40
38131;DHT22;23947;51.894;4.622;2023-04-10T06:44:03;9.90;1.40
38131;DHT22;23947;51.894;4.622;2023-04-10T06:46:28;9.90;1.40
38131;DHT22;23947;51.894;4.622;2023-04-10T06:48:54;10.00;1.40
38131;DHT22;23947;51.894;4.622;2023-04-10T06:51:19;10.00;1.40
38131;DHT22;23947;51.894;4.622;2023-04-10T06:53:45;10.00;1.40
38131;DHT22;23947;51.894;4.622;2023-04-10T06:56:11;10.00;1.40
38131;DHT22;23947;51.894;4.622;2023-04-10T06:58:36;10.10;1.40
38131;DHT22;23947;51.894;4.622;2023-04-10T07:01:02;10.10;1.40
38131;DHT22;23947;51.894;4.622;2023-04-10T07:03:29;10.10;1.40
38131;DHT22;23947;51.894;4.622;2023-04-10T07:05:56;10.20;1.40
38131;DHT22;23947;51.894;4.622;2023-04-10T07:08:22;10.20;1.40
38131;DHT22;23947;51.894;4.622;2023-04-10T07:10:48;10.20;1.40
38131;DHT22;23947;51.894;4.622;2023-04-10T07:13:13;10.30;1.40
38131;DHT22;23947;51.894;4.622;2023-04-10T07:15:39;10.30;1.40
38131;DHT22;23947;51.894;4.622;2023-04-10T07:18:05;10.40;1.40
38131;DHT22;23947;51.894;4.622;2023-04-10T07:20:30;10.40;1.40
38131;DHT22;23947;51.894;4.622;2023-04-10T07:22:56;10.50;1.40
38131;DHT22;23947;51.894;4.622;2023-04-10T07:25:22;10.50;1.40
38131;DHT22;23947;51.894;4.622;2023-04-10T07:27:47;10.60;1.40
38131;DHT22;23947;51.894;4.622;2023-04-10T07:30:13;10.60;1.40
38131;DHT22;23947;51.894;4.622;2023-04-10T07:32:39;10.60;1.40
38131;DHT22;23947;51.894;4.622;2023-04-10T07:35:06;10.60;1.40
38131;DHT22;23947;51.894;4.622;2023-04-10T07:37:32;10.70;1.40
38131;DHT22;23947;51.894;4.622;2023-04-10T07:39:58;10.70;1.40
38131;DHT22;23947;51.894;4.622;2023-04-10T07:42:24;10.70;1.40
38131;DHT22;23947;51.894;4.622;2023-04-10T07:44:49;10.80;1.40
38131;DHT22;23947;51.894;4.622;2023-04-10T07:47:15;10.80;1.40
38131;DHT22;23947;51.894;4.622;2023-04-10T07:49:41;10.90;1.40
38131;DHT22;23947;51.894;4.622;2023-04-10T07:52:06;10.90;1.40
38131;DHT22;23947;51.894;4.622;2023-04-10T07:54:33;11.00;1.40
38131;DHT22;23947;51.894;4.622;2023-04-10T07:56:58;11.00;1.40
38131;DHT22;23947;51.894;4.622;2023-04-10T07:59:25;11.00;1.40
38131;DHT22;23947;51.894;4.622;2023-04-10T08:01:51;11.10;1.40
38131;DHT22;23947;51.894;4.622;2023-04-10T08:04:16;11.20;1.40
38131;DHT22;23947;51.894;4.622;2023-04-10T08:06:42;11.20;1.40
38131;DHT22;23947;51.894;4.622;2023-04-10T08:09:07;11.30;1.40
38131;DHT22;23947;51.894;4.622;2023-04-10T08:11:34;11.30;1.40
38131;DHT22;23947;51.894;4.622;2023-04-10T08:14:02;11.30;1.40
38131;DHT22;23947;51.894;4.622;2023-04-10T08:16:29;11.30;1.40
38131;DHT22;23947;51.894;4.622;2023-04-10T08:18:56;11.40;1.40
38131;DHT22;23947;51.894;4.622;2023-04-10T08:21:26;11.40;1.40
38131;DHT22;23947;51.894;4.622;2023-04-10T08:23:57;11.40;1.40
38131;DHT22;23947;51.894;4.622;2023-04-10T08:26:24;11.40;1.40
38131;DHT22;23947;51.894;4.622;2023-04-10T08:28:51;11.50;1.40
38131;DHT22;23947;51.894;4.622;2023-04-10T08:31:18;11.50;1.40
38131;DHT22;23947;51.894;4.622;2023-04-10T08:33:44;11.60;1.40
38131;DHT22;23947;51.894;4.622;2023-04-10T08:36:10;11.60;1.40
38131;DHT22;23947;51.894;4.622;2023-04-10T08:38:40;11.70;1.40
38131;DHT22;23947;51.894;4.622;2023-04-10T08:41:05;11.70;1.40
38131;DHT22;23947;51.894;4.622;2023-04-10T08:43:31;11.70;1.40
38131;DHT22;23947;51.894;4.622;2023-04-10T08:45:59;11.80;1.40
38131;DHT22;23947;51.894;4.622;2023-04-10T08:51:30;11.90;1.40
38131;DHT22;23947;51.894;4.622;2023-04-10T08:54:00;12.00;1.40
38131;DHT22;23947;51.894;4.622;2023-04-10T08:56:27;12.00;1.40
38131;DHT22;23947;51.894;4.622;2023-04-10T08:58:52;12.10;1.40
38131;DHT22;23947;51.894;4.622;2023-04-10T09:01:20;12.10;1.40
38131;DHT22;23947;51.894;4.622;2023-04-10T09:03:47;12.20;1.40
38131;DHT22;23947;51.894;4.622;2023-04-10T09:06:12;12.20;1.40
38131;DHT22;23947;51.894;4.622;2023-04-10T09:08:38;12.20;1.40
38131;DHT22;23947;51.894;4.622;2023-04-10T09:11:04;12.30;1.40
38131;DHT22;23947;51.894;4.622;2023-04-10T09:13:41;12.40;1.40
38131;DHT22;23947;51.894;4.622;2023-04-10T09:16:09;12.50;1.40
38131;DHT22;23947;51.894;4.622;2023-04-10T09:18:44;12.50;1.40
38131;DHT22;23947;51.894;4.622;2023-04-10T09:21:14;12.50;1.40
38131;DHT22;23947;51.894;4.622;2023-04-10T09:23:41;12.50;1.40
38131;DHT22;23947;51.894;4.622;2023-04-10T09:26:27;12.60;1.40
38131;DHT22;23947;51.894;4.622;2023-04-10T09:29:04;12.50;1.40
38131;DHT22;23947;51.894;4.622;2023-04-10T09:31:37;12.50;1.40
38131;DHT22;23947;51.894;4.622;2023-04-10T09:34:22;12.60;1.40
38131;DHT22;23947;51.894;4.622;2023-04-10T09:36:54;12.60;1.40
38131;DHT22;23947;51.894;4.622;2023-04-10T09:39:21;12.60;1.40
38131;DHT22;23947;51.894;4.622;2023-04-10T09:41:57;12.60;1.40
38131;DHT22;23947;51.894;4.622;2023-04-10T09:44:35;12.60;1.40
38131;DHT22;23947;51.894;4.622;2023-04-10T09:49:57;12.90;1.40
38131;DHT22;23947;51.894;4.622;2023-04-10T09:52:30;13.00;1.40
38131;DHT22;23947;51.894;4.622;2023-04-10T09:54:57;13.10;1.40
38131;DHT22;23947;51.894;4.622;2023-04-10T09:57:26;13.10;1.40
38131;DHT22;23947;51.894;4.622;2023-04-10T09:59:56;13.20;1.40
38131;DHT22;23947;51.894;4.622;2023-04-10T10:02:25;13.20;1.40
38131;DHT22;23947;51.894;4.622;2023-04-10T10:04:51;13.30;1.40
38131;DHT22;23947;51.894;4.622;2023-04-10T10:07:19;13.30;1.40
38131;DHT22;23947;51.894;4.622;2023-04-10T10:09:47;13.40;1.40
38131;DHT22;23947;51.894;4.622;2023-04-10T10:12:33;13.50;1.40
38131;DHT22;23947;51.894;4.622;2023-04-10T10:17:41;13.60;1.40
38131;DHT22;23947;51.894;4.622;2023-04-10T10:20:09;13.70;1.40
38131;DHT22;23947;51.894;4.622;2023-04-10T10:22:39;13.80;1.40
38131;DHT22;23947;51.894;4.622;2023-04-10T10:25:06;13.90;1.40
38131;DHT22;23947;51.894;4.622;2023-04-10T10:27:36;13.90;1.40
38131;DHT22;23947;51.894;4.622;2023-04-10T10:30:02;14.10;1.40
38131;DHT22;23947;51.894;4.622;2023-04-10T10:32:29;14.10;1.40
38131;DHT22;23947;51.894;4.622;2023-04-10T10:34:56;14.20;1.40
38131;DHT22;23947;51.894;4.622;2023-04-10T10:37:22;14.30;1.40
38131;DHT22;23947;51.894;4.622;2023-04-10T10:41:27;14.40;1.40
38131;DHT22;23947;51.894;4.622;2023-04-10T10:43:41;14.60;1.40
38131;DHT22;23947;51.894;4.622;2023-04-10T10:46:28;14.70;1.40
38131;DHT22;23947;51.894;4.622;2023-04-10T10:48:57;14.80;1.40
38131;DHT22;23947;51.894;4.622;2023-04-10T10:51:41;14.90;1.40
38131;DHT22;23947;51.894;4.622;2023-04-10T10:56:53;15.10;1.40
38131;DHT22;23947;51.894;4.622;2023-04-10T11:02:17;15.30;1.40
38131;DHT22;23947;51.894;4.622;2023-04-10T11:04:44;15.20;1.40
38131;DHT22;23947;51.894;4.622;2023-04-10T11:07:11;15.20;1.40
38131;DHT22;23947;51.894;4.622;2023-04-10T11:09:51;15.20;1.40
38131;DHT22;23947;51.894;4.622;2023-04-10T11:12:20;15.20;1.40
38131;DHT22;23947;51.894;4.622;2023-04-10T11:14:59;15.30;1.40
38131;DHT22;23947;51.894;4.622;2023-04-10T11:17:49;15.30;1.40
38131;DHT22;23947;51.894;4.622;2023-04-10T11:20:15;15.30;1.40
38131;DHT22;23947;51.894;4.622;2023-04-10T11:23:09;15.40;1.40
38131;DHT22;23947;51.894;4.622;2023-04-10T11:26:02;15.50;1.40
38131;DHT22;23947;51.894;4.622;2023-04-10T11:33:42;15.60;1.40
38131;DHT22;23947;51.894;4.622;2023-04-10T11:36:12;15.50;1.40
38131;DHT22;23947;51.894;4.622;2023-04-10T11:38:38;15.50;1.40
38131;DHT22;23947;51.894;4.622;2023-04-10T11:41:04;15.50;1.40
38131;DHT22;23947;51.894;4.622;2023-04-10T11:43:32;15.50;1.40
38131;DHT22;23947;51.894;4.622;2023-04-10T11:46:05;15.40;1.40
38131;DHT22;23947;51.894;4.622;2023-04-10T11:48:32;15.40;1.40
38131;DHT22;23947;51.894;4.622;2023-04-10T11:50:58;15.30;1.40
38131;DHT22;23947;51.894;4.622;2023-04-10T11:53:30;15.30;1.40
38131;DHT22;23947;51.894;4.622;2023-04-10T11:55:56;15.30;1.40
38131;DHT22;23947;51.894;4.622;2023-04-10T11:58:26;15.20;1.40
38131;DHT22;23947;51.894;4.622;2023-04-10T12:01:00;15.20;1.40
38131;DHT22;23947;51.894;4.622;2023-04-10T12:03:37;15.10;1.40
38131;DHT22;23947;51.894;4.622;2023-04-10T12:06:06;15.10;1.40
38131;DHT22;23947;51.894;4.622;2023-04-10T12:08:40;15.20;1.40
38131;DHT22;23947;51.894;4.622;2023-04-10T12:11:08;15.10;1.40
38131;DHT22;23947;51.894;4.622;2023-04-10T12:13:34;15.00;1.40
38131;DHT22;23947;51.894;4.622;2023-04-10T12:16:06;15.00;1.40
38131;DHT22;23947;51.894;4.622;2023-04-10T12:18:32;14.90;1.40
38131;DHT22;23947;51.894;4.622;2023-04-10T12:20:58;14.90;1.40
38131;DHT22;23947;51.894;4.622;2023-04-10T12:23:25;14.90;1.40
38131;DHT22;23947;51.894;4.622;2023-04-10T12:25:52;14.80;1.40
38131;DHT22;23947;51.894;4.622;2023-04-10T12:28:21;14.80;1.40
38131;DHT22;23947;51.894;4.622;2023-04-10T12:30:51;14.80;1.40
38131;DHT22;23947;51.894;4.622;2023-04-10T12:33:23;14.80;1.40
38131;DHT22;23947;51.894;4.622;2023-04-10T12:35:50;14.70;1.40
38131;DHT22;23947;51.894;4.622;2023-04-10T12:41:01;14.60;1.40
38131;DHT22;23947;51.894;4.622;2023-04-10T12:43:31;14.60;1.40
38131;DHT22;23947;51.894;4.622;2023-04-10T12:45:58;14.50;1.40
38131;DHT22;23947;51.894;4.622;2023-04-10T12:48:23;14.40;1.40
38131;DHT22;23947;51.894;4.622;2023-04-10T12:50:49;14.20;1.40
38131;DHT22;23947;51.894;4.622;2023-04-10T12:53:15;14.20;1.40
38131;DHT22;23947;51.894;4.622;2023-04-10T12:55:41;14.10;1.40
38131;DHT22;23947;51.894;4.622;2023-04-10T12:58:20;14.00;1.40
38131;DHT22;23947;51.894;4.622;2023-04-10T13:00:47;13.90;1.40
38131;DHT22;23947;51.894;4.622;2023-04-10T13:03:13;13.90;1.40
38131;DHT22;23947;51.894;4.622;2023-04-10T13:05:38;13.70;1.40
38131;DHT22;23947;51.894;4.622;2023-04-10T13:08:04;13.70;1.40
38131;DHT22;23947;51.894;4.622;2023-04-10T13:10:30;13.50;1.40
38131;DHT22;23947;51.894;4.622;2023-04-10T13:12:56;13.50;1.40
38131;DHT22;23947;51.894;4.622;2023-04-10T13:15:21;13.40;1.40
38131;DHT22;23947;51.894;4.622;2023-04-10T13:17:47;13.30;1.40
38131;DHT22;23947;51.894;4.622;2023-04-10T13:20:12;13.20;1.40
38131;DHT22;23947;51.894;4.622;2023-04-10T13:22:38;13.20;1.40
38131;DHT22;23947;51.894;4.622;2023-04-10T13:25:04;13.10;1.40
38131;DHT22;23947;51.894;4.622;2023-04-10T13:27:30;13.10;1.40
38131;DHT22;23947;51.894;4.622;2023-04-10T13:29:56;13.10;1.40
38131;DHT22;23947;51.894;4.622;2023-04-10T13:32:21;13.10;1.40
38131;DHT22;23947;51.894;4.622;2023-04-10T13:34:47;13.10;1.40
38131;DHT22;23947;51.894;4.622;2023-04-10T13:37:12;13.20;1.40
38131;DHT22;23947;51.894;4.622;2023-04-10T13:39:38;13.20;1.40
38131;DHT22;23947;51.894;4.622;2023-04-10T13:42:04;13.10;1.40
38131;DHT22;23947;51.894;4.622;2023-04-10T13:44:29;13.00;1.40
38131;DHT22;23947;51.894;4.622;2023-04-10T13:46:55;13.00;1.40
38131;DHT22;23947;51.894;4.622;2023-04-10T13:49:23;13.00;1.40
38131;DHT22;23947;51.894;4.622;2023-04-10T13:51:48;13.00;1.40
38131;DHT22;23947;51.894;4.622;2023-04-10T13:54:14;13.00;1.40
38131;DHT22;23947;51.894;4.622;2023-04-10T13:56:42;13.00;1.40
38131;DHT22;23947;51.894;4.622;2023-04-10T13:59:08;12.90;1.40
38131;DHT22;23947;51.894;4.622;2023-04-10T14:01:34;12.90;1.40
38131;DHT22;23947;51.894;4.622;2023-04-10T14:04:00;12.80;1.40
38131;DHT22;23947;51.894;4.622;2023-04-10T14:06:25;12.80;1.40
38131;DHT22;23947;51.894;4.622;2023-04-10T14:08:51;12.70;1.40
38131;DHT22;23947;51.894;4.622;2023-04-10T14:11:17;12.70;1.40
38131;DHT22;23947;51.894;4.622;2023-04-10T14:13:42;12.70;1.40
38131;DHT22;23947;51.894;4.622;2023-04-10T14:16:08;12.60;1.40
38131;DHT22;23947;51.894;4.622;2023-04-10T14:18:35;12.50;1.40
38131;DHT22;23947;51.894;4.622;2023-04-10T14:21:01;12.40;1.40
38131;DHT22;23947;51.894;4.622;2023-04-10T14:23:26;12.40;1.40
38131;DHT22;23947;51.894;4.622;2023-04-10T14:25:52;12.30;1.40
38131;DHT22;23947;51.894;4.622;2023-04-10T14:28:18;12.30;1.40
38131;DHT22;23947;51.894;4.622;2023-04-10T14:30:44;12.20;1.40
38131;DHT22;23947;51.894;4.622;2023-04-10T14:33:11;12.30;1.40
38131;DHT22;23947;51.894;4.622;2023-04-10T14:35:37;12.20;1.40
38131;DHT22;23947;51.894;4.622;2023-04-10T14:38:02;12.20;1.40
38131;DHT22;23947;51.894;4.622;2023-04-10T14:40:28;12.20;1.40
38131;DHT22;23947;51.894;4.622;2023-04-10T14:42:54;12.20;1.40
38131;DHT22;23947;51.894;4.622;2023-04-10T14:45:19;12.20;1.40
38131;DHT22;23947;51.894;4.622;2023-04-10T14:47:45;12.20;1.40
38131;DHT22;23947;51.894;4.622;2023-04-10T14:50:12;12.20;1.40
38131;DHT22;23947;51.894;4.622;2023-04-10T14:52:37;12.20;1.40
38131;DHT22;23947;51.894;4.622;2023-04-10T14:55:03;12.20;1.40
38131;DHT22;23947;51.894;4.622;2023-04-10T14:57:29;12.20;1.40
38131;DHT22;23947;51.894;4.622;2023-04-10T14:59:55;12.10;1.40
38131;DHT22;23947;51.894;4.622;2023-04-10T15:02:21;12.00;1.40
38131;DHT22;23947;51.894;4.622;2023-04-10T15:04:46;12.00;1.40
38131;DHT22;23947;51.894;4.622;2023-04-10T15:07:13;12.00;1.40
38131;DHT22;23947;51.894;4.622;2023-04-10T15:09:39;11.90;1.40
38131;DHT22;23947;51.894;4.622;2023-04-10T15:12:05;11.90;1.40
38131;DHT22;23947;51.894;4.622;2023-04-10T15:14:31;11.90;1.40
38131;DHT22;23947;51.894;4.622;2023-04-10T15:16:57;11.90;1.40
38131;DHT22;23947;51.894;4.622;2023-04-10T15:19:23;11.80;1.40
38131;DHT22;23947;51.894;4.622;2023-04-10T15:21:48;11.80;1.40
38131;DHT22;23947;51.894;4.622;2023-04-10T15:24:14;11.80;1.40
38131;DHT22;23947;51.894;4.622;2023-04-10T15:26:44;11.80;1.40
38131;DHT22;23947;51.894;4.622;2023-04-10T15:29:13;11.70;1.40
38131;DHT22;23947;51.894;4.622;2023-04-10T15:31:39;11.70;1.40
38131;DHT22;23947;51.894;4.622;2023-04-10T15:34:05;11.70;1.40
38131;DHT22;23947;51.894;4.622;2023-04-10T15:36:31;11.70;1.40
38131;DHT22;23947;51.894;4.622;2023-04-10T15:38:57;11.60;1.40
38131;DHT22;23947;51.894;4.622;2023-04-10T15:41:24;11.60;1.40
38131;DHT22;23947;51.894;4.622;2023-04-10T15:43:52;11.60;1.40
38131;DHT22;23947;51.894;4.622;2023-04-10T15:46:17;11.60;1.40
38131;DHT22;23947;51.894;4.622;2023-04-10T15:48:43;11.60;1.40
38131;DHT22;23947;51.894;4.622;2023-04-10T15:51:10;11.60;1.40
38131;DHT22;23947;51.894;4.622;2023-04-10T15:53:36;11.60;1.40
38131;DHT22;23947;51.894;4.622;2023-04-10T15:56:05;11.60;1.40
38131;DHT22;23947;51.894;4.622;2023-04-10T15:58:32;11.50;1.40
38131;DHT22;23947;51.894;4.622;2023-04-10T16:00:58;11.50;1.40
38131;DHT22;23947;51.894;4.622;2023-04-10T16:03:24;11.50;1.40
38131;DHT22;23947;51.894;4.622;2023-04-10T16:05:51;11.50;1.40
38131;DHT22;23947;51.894;4.622;2023-04-10T16:08:17;11.50;1.40
38131;DHT22;23947;51.894;4.622;2023-04-10T16:10:42;11.50;1.40
38131;DHT22;23947;51.894;4.622;2023-04-10T16:13:08;11.40;1.40
38131;DHT22;23947;51.894;4.622;2023-04-10T16:15:35;11.50;1.40
38131;DHT22;23947;51.894;4.622;2023-04-10T16:18:05;11.50;1.40
38131;DHT22;23947;51.894;4.622;2023-04-10T16:20:32;11.40;1.40
38131;DHT22;23947;51.894;4.622;2023-04-10T16:22:59;11.40;1.40
38131;DHT22;23947;51.894;4.622;2023-04-10T16:25:25;11.40;1.40
38131;DHT22;23947;51.894;4.622;2023-04-10T16:27:55;11.50;1.40
38131;DHT22;23947;51.894;4.622;2023-04-10T16:30:21;11.40;1.40
38131;DHT22;23947;51.894;4.622;2023-04-10T16:32:47;11.40;1.40